sensor_id;sensor_type;location;lat;lon;timestamp;P1;durP1;ratioP1;P2;durP2;ratioP2
17207;SDS011;8720;48.488;9.202;2022-10-17T00:00:25;2.90;;;2.47;;
17207;SDS011;8720;48.488;9.202;2022-10-17T00:02:53;3.30;;;2.30;;
17207;SDS011;8720;48.488;9.202;2022-10-17T00:05:21;3.53;;;2.10;;
17207;SDS011;8720;48.488;9.202;2022-10-17T00:07:49;2.70;;;2.50;;
17207;SDS011;8720;48.488;9.202;2022-10-17T00:10:19;3.90;;;2.80;;
17207;SDS011;8720;48.488;9.202;2022-10-17T00:12:49;2.30;;;2.10;;
17207;SDS011;8720;48.488;9.202;2022-10-17T00:15:18;2.43;;;2.20;;
17207;SDS011;8720;48.488;9.202;2022-10-17T00:17:48;3.80;;;2.10;;
17207;SDS011;8720;48.488;9.202;2022-10-17T00:20:15;2.70;;;2.07;;
17207;SDS011;8720;48.488;9.202;2022-10-17T00:22:43;2.07;;;1.87;;
17207;SDS011;8720;48.488;9.202;2022-10-17T00:25:10;3.30;;;2.53;;
17207;SDS011;8720;48.488;9.202;2022-10-17T00:27:41;3.53;;;2.33;;
17207;SDS011;8720;48.488;9.202;2022-10-17T00:30:09;3.23;;;2.13;;
17207;SDS011;8720;48.488;9.202;2022-10-17T00:32:41;2.57;;;2.37;;
17207;SDS011;8720;48.488;9.202;2022-10-17T00:35:09;3.67;;;2.43;;
17207;SDS011;8720;48.488;9.202;2022-10-17T00:37:36;6.03;;;2.17;;
17207;SDS011;8720;48.488;9.202;2022-10-17T00:40:04;4.63;;;2.10;;
17207;SDS011;8720;48.488;9.202;2022-10-17T00:42:33;8.30;;;2.13;;
17207;SDS011;8720;48.488;9.202;2022-10-17T00:45:12;4.17;;;2.80;;
17207;SDS011;8720;48.488;9.202;2022-10-17T00:47:47;3.67;;;2.30;;
17207;SDS011;8720;48.488;9.202;2022-10-17T00:50:19;2.70;;;2.20;;
17207;SDS011;8720;48.488;9.202;2022-10-17T00:52:48;5.40;;;2.00;;
17207;SDS011;8720;48.488;9.202;2022-10-17T00:55:17;3.27;;;2.17;;
17207;SDS011;8720;48.488;9.202;2022-10-17T00:57:48;2.70;;;2.17;;
17207;SDS011;8720;48.488;9.202;2022-10-17T01:00:18;5.33;;;2.43;;
17207;SDS011;8720;48.488;9.202;2022-10-17T01:02:47;3.20;;;2.20;;
17207;SDS011;8720;48.488;9.202;2022-10-17T01:05:15;5.50;;;2.23;;
17207;SDS011;8720;48.488;9.202;2022-10-17T01:07:44;3.40;;;2.37;;
17207;SDS011;8720;48.488;9.202;2022-10-17T01:10:16;3.70;;;2.23;;
17207;SDS011;8720;48.488;9.202;2022-10-17T01:12:47;3.60;;;2.30;;
17207;SDS011;8720;48.488;9.202;2022-10-17T01:15:31;2.40;;;2.20;;
17207;SDS011;8720;48.488;9.202;2022-10-17T01:18:21;5.40;;;2.23;;
17207;SDS011;8720;48.488;9.202;2022-10-17T01:21:17;3.30;;;2.20;;
17207;SDS011;8720;48.488;9.202;2022-10-17T01:27:35;3.07;;;2.53;;
17207;SDS011;8720;48.488;9.202;2022-10-17T01:33:31;2.07;;;1.93;;
17207;SDS011;8720;48.488;9.202;2022-10-17T01:36:23;3.83;;;2.70;;
17207;SDS011;8720;48.488;9.202;2022-10-17T01:39:09;2.33;;;2.00;;
17207;SDS011;8720;48.488;9.202;2022-10-17T01:41:48;2.63;;;2.43;;
17207;SDS011;8720;48.488;9.202;2022-10-17T01:44:27;3.80;;;2.30;;
17207;SDS011;8720;48.488;9.202;2022-10-17T01:47:06;2.97;;;1.93;;
17207;SDS011;8720;48.488;9.202;2022-10-17T01:49:38;3.83;;;2.60;;
17207;SDS011;8720;48.488;9.202;2022-10-17T01:52:12;4.77;;;2.43;;
17207;SDS011;8720;48.488;9.202;2022-10-17T01:54:46;5.40;;;2.17;;
17207;SDS011;8720;48.488;9.202;2022-10-17T01:57:19;3.07;;;2.50;;
17207;SDS011;8720;48.488;9.202;2022-10-17T01:59:54;5.93;;;4.00;;
17207;SDS011;8720;48.488;9.202;2022-10-17T02:04:58;4.77;;;2.93;;
17207;SDS011;8720;48.488;9.202;2022-10-17T02:07:28;3.70;;;3.00;;
17207;SDS011;8720;48.488;9.202;2022-10-17T02:09:57;4.67;;;2.93;;
17207;SDS011;8720;48.488;9.202;2022-10-17T02:12:32;4.33;;;3.30;;
17207;SDS011;8720;48.488;9.202;2022-10-17T02:15:23;3.93;;;2.23;;
17207;SDS011;8720;48.488;9.202;2022-10-17T02:18:16;2.83;;;2.20;;
17207;SDS011;8720;48.488;9.202;2022-10-17T02:21:05;3.90;;;2.53;;
17207;SDS011;8720;48.488;9.202;2022-10-17T02:23:40;3.40;;;2.70;;
17207;SDS011;8720;48.488;9.202;2022-10-17T02:26:18;3.20;;;2.90;;
17207;SDS011;8720;48.488;9.202;2022-10-17T02:28:55;3.13;;;2.63;;
17207;SDS011;8720;48.488;9.202;2022-10-17T02:31:35;2.63;;;2.40;;
17207;SDS011;8720;48.488;9.202;2022-10-17T02:34:11;3.77;;;2.70;;
17207;SDS011;8720;48.488;9.202;2022-10-17T02:36:48;2.83;;;2.63;;
17207;SDS011;8720;48.488;9.202;2022-10-17T02:39:20;3.50;;;2.50;;
17207;SDS011;8720;48.488;9.202;2022-10-17T02:41:50;3.37;;;2.80;;
17207;SDS011;8720;48.488;9.202;2022-10-17T02:44:21;4.90;;;2.60;;
17207;SDS011;8720;48.488;9.202;2022-10-17T02:46:52;3.83;;;2.97;;
17207;SDS011;8720;48.488;9.202;2022-10-17T02:49:27;2.40;;;2.20;;
17207;SDS011;8720;48.488;9.202;2022-10-17T02:52:04;7.47;;;3.07;;
17207;SDS011;8720;48.488;9.202;2022-10-17T02:54:40;3.30;;;3.00;;
17207;SDS011;8720;48.488;9.202;2022-10-17T02:57:16;4.00;;;3.00;;
17207;SDS011;8720;48.488;9.202;2022-10-17T02:59:49;5.70;;;2.60;;
17207;SDS011;8720;48.488;9.202;2022-10-17T03:02:17;4.63;;;2.77;;
17207;SDS011;8720;48.488;9.202;2022-10-17T03:04:45;3.00;;;2.80;;
17207;SDS011;8720;48.488;9.202;2022-10-17T03:07:15;3.50;;;2.67;;
17207;SDS011;8720;48.488;9.202;2022-10-17T03:09:43;4.80;;;3.03;;
17207;SDS011;8720;48.488;9.202;2022-10-17T03:12:10;5.00;;;3.00;;
17207;SDS011;8720;48.488;9.202;2022-10-17T03:14:37;2.73;;;2.43;;
17207;SDS011;8720;48.488;9.202;2022-10-17T03:17:05;3.87;;;2.43;;
17207;SDS011;8720;48.488;9.202;2022-10-17T03:19:32;3.20;;;2.70;;
17207;SDS011;8720;48.488;9.202;2022-10-17T03:21:59;6.50;;;2.87;;
17207;SDS011;8720;48.488;9.202;2022-10-17T03:24:29;3.37;;;2.60;;
17207;SDS011;8720;48.488;9.202;2022-10-17T03:26:57;2.77;;;2.47;;
17207;SDS011;8720;48.488;9.202;2022-10-17T03:29:25;5.00;;;3.30;;
17207;SDS011;8720;48.488;9.202;2022-10-17T03:31:52;4.47;;;2.80;;
17207;SDS011;8720;48.488;9.202;2022-10-17T03:34:20;5.00;;;3.00;;
17207;SDS011;8720;48.488;9.202;2022-10-17T03:36:49;6.63;;;3.10;;
17207;SDS011;8720;48.488;9.202;2022-10-17T03:39:17;3.50;;;2.80;;
17207;SDS011;8720;48.488;9.202;2022-10-17T03:41:46;4.77;;;3.00;;
17207;SDS011;8720;48.488;9.202;2022-10-17T03:44:14;2.80;;;2.57;;
17207;SDS011;8720;48.488;9.202;2022-10-17T03:46:41;4.43;;;3.10;;
17207;SDS011;8720;48.488;9.202;2022-10-17T03:49:09;4.93;;;2.50;;
17207;SDS011;8720;48.488;9.202;2022-10-17T03:51:38;3.03;;;2.83;;
17207;SDS011;8720;48.488;9.202;2022-10-17T03:54:10;2.70;;;2.40;;
17207;SDS011;8720;48.488;9.202;2022-10-17T03:56:38;3.43;;;2.63;;
17207;SDS011;8720;48.488;9.202;2022-10-17T03:59:12;4.70;;;2.63;;
17207;SDS011;8720;48.488;9.202;2022-10-17T04:01:47;2.87;;;2.57;;
17207;SDS011;8720;48.488;9.202;2022-10-17T04:04:16;4.40;;;3.00;;
17207;SDS011;8720;48.488;9.202;2022-10-17T04:06:44;3.10;;;2.70;;
17207;SDS011;8720;48.488;9.202;2022-10-17T04:09:11;4.90;;;2.50;;
17207;SDS011;8720;48.488;9.202;2022-10-17T04:11:45;6.70;;;2.93;;
17207;SDS011;8720;48.488;9.202;2022-10-17T04:14:14;4.37;;;2.70;;
17207;SDS011;8720;48.488;9.202;2022-10-17T04:16:42;3.77;;;3.00;;
17207;SDS011;8720;48.488;9.202;2022-10-17T04:19:14;4.07;;;3.03;;
17207;SDS011;8720;48.488;9.202;2022-10-17T04:21:44;3.07;;;2.60;;
17207;SDS011;8720;48.488;9.202;2022-10-17T04:24:13;4.03;;;2.90;;
17207;SDS011;8720;48.488;9.202;2022-10-17T04:27:00;3.73;;;2.63;;
17207;SDS011;8720;48.488;9.202;2022-10-17T04:29:32;7.93;;;4.00;;
17207;SDS011;8720;48.488;9.202;2022-10-17T04:32:08;4.73;;;4.03;;
17207;SDS011;8720;48.488;9.202;2022-10-17T04:34:46;5.17;;;4.20;;
17207;SDS011;8720;48.488;9.202;2022-10-17T04:37:16;4.33;;;3.60;;
17207;SDS011;8720;48.488;9.202;2022-10-17T04:39:45;8.07;;;4.93;;
17207;SDS011;8720;48.488;9.202;2022-10-17T04:42:12;4.20;;;3.80;;
17207;SDS011;8720;48.488;9.202;2022-10-17T04:44:41;4.70;;;3.20;;
17207;SDS011;8720;48.488;9.202;2022-10-17T04:47:08;3.60;;;3.30;;
17207;SDS011;8720;48.488;9.202;2022-10-17T04:49:38;3.90;;;3.00;;
17207;SDS011;8720;48.488;9.202;2022-10-17T04:52:08;3.27;;;2.97;;
17207;SDS011;8720;48.488;9.202;2022-10-17T04:54:47;3.80;;;3.50;;
17207;SDS011;8720;48.488;9.202;2022-10-17T04:57:16;4.57;;;3.23;;
17207;SDS011;8720;48.488;9.202;2022-10-17T05:00:17;3.80;;;2.53;;
17207;SDS011;8720;48.488;9.202;2022-10-17T05:02:52;3.10;;;2.80;;
17207;SDS011;8720;48.488;9.202;2022-10-17T05:05:19;3.30;;;2.80;;
17207;SDS011;8720;48.488;9.202;2022-10-17T05:07:50;3.67;;;2.80;;
17207;SDS011;8720;48.488;9.202;2022-10-17T05:10:21;5.10;;;2.63;;
17207;SDS011;8720;48.488;9.202;2022-10-17T05:12:51;4.53;;;2.90;;
17207;SDS011;8720;48.488;9.202;2022-10-17T05:15:22;5.00;;;2.97;;
17207;SDS011;8720;48.488;9.202;2022-10-17T05:17:53;5.00;;;2.50;;
17207;SDS011;8720;48.488;9.202;2022-10-17T05:20:21;3.33;;;3.07;;
17207;SDS011;8720;48.488;9.202;2022-10-17T05:22:49;3.60;;;2.60;;
17207;SDS011;8720;48.488;9.202;2022-10-17T05:25:17;2.93;;;2.27;;
17207;SDS011;8720;48.488;9.202;2022-10-17T05:27:45;4.37;;;2.93;;
17207;SDS011;8720;48.488;9.202;2022-10-17T05:30:13;3.80;;;3.00;;
17207;SDS011;8720;48.488;9.202;2022-10-17T05:32:43;4.47;;;2.73;;
17207;SDS011;8720;48.488;9.202;2022-10-17T05:35:10;3.83;;;2.80;;
17207;SDS011;8720;48.488;9.202;2022-10-17T05:37:38;4.47;;;3.17;;
17207;SDS011;8720;48.488;9.202;2022-10-17T05:40:06;3.73;;;2.97;;
17207;SDS011;8720;48.488;9.202;2022-10-17T05:42:35;6.00;;;3.87;;
17207;SDS011;8720;48.488;9.202;2022-10-17T05:45:02;4.93;;;3.30;;
17207;SDS011;8720;48.488;9.202;2022-10-17T05:47:31;7.83;;;4.23;;
17207;SDS011;8720;48.488;9.202;2022-10-17T05:50:00;4.78;;;3.80;;
17207;SDS011;8720;48.488;9.202;2022-10-17T05:52:38;5.17;;;3.60;;
17207;SDS011;8720;48.488;9.202;2022-10-17T05:55:10;5.50;;;3.87;;
17207;SDS011;8720;48.488;9.202;2022-10-17T05:57:38;8.47;;;4.20;;
17207;SDS011;8720;48.488;9.202;2022-10-17T06:00:13;4.80;;;3.97;;
17207;SDS011;8720;48.488;9.202;2022-10-17T06:02:42;5.20;;;4.20;;
17207;SDS011;8720;48.488;9.202;2022-10-17T06:05:14;6.40;;;4.07;;
17207;SDS011;8720;48.488;9.202;2022-10-17T06:07:42;5.97;;;4.30;;
17207;SDS011;8720;48.488;9.202;2022-10-17T06:10:11;7.43;;;4.37;;
17207;SDS011;8720;48.488;9.202;2022-10-17T06:12:41;7.10;;;4.10;;
17207;SDS011;8720;48.488;9.202;2022-10-17T06:15:08;9.73;;;4.13;;
17207;SDS011;8720;48.488;9.202;2022-10-17T06:17:39;5.93;;;3.70;;
17207;SDS011;8720;48.488;9.202;2022-10-17T06:20:07;7.30;;;4.10;;
17207;SDS011;8720;48.488;9.202;2022-10-17T06:22:36;4.00;;;3.60;;
17207;SDS011;8720;48.488;9.202;2022-10-17T06:25:10;5.03;;;3.47;;
17207;SDS011;8720;48.488;9.202;2022-10-17T06:27:37;4.03;;;3.70;;
17207;SDS011;8720;48.488;9.202;2022-10-17T06:30:05;5.00;;;3.63;;
17207;SDS011;8720;48.488;9.202;2022-10-17T06:32:33;4.53;;;4.00;;
17207;SDS011;8720;48.488;9.202;2022-10-17T06:35:00;4.20;;;3.80;;
17207;SDS011;8720;48.488;9.202;2022-10-17T06:37:29;6.05;;;4.35;;
17207;SDS011;8720;48.488;9.202;2022-10-17T06:40:02;6.83;;;3.83;;
17207;SDS011;8720;48.488;9.202;2022-10-17T06:42:33;4.60;;;3.57;;
17207;SDS011;8720;48.488;9.202;2022-10-17T06:45:06;4.10;;;3.37;;
17207;SDS011;8720;48.488;9.202;2022-10-17T06:47:41;4.97;;;3.77;;
17207;SDS011;8720;48.488;9.202;2022-10-17T06:50:23;5.30;;;3.50;;
17207;SDS011;8720;48.488;9.202;2022-10-17T06:53:11;7.20;;;3.60;;
17207;SDS011;8720;48.488;9.202;2022-10-17T06:55:51;4.43;;;3.73;;
17207;SDS011;8720;48.488;9.202;2022-10-17T06:58:45;7.93;;;4.43;;
17207;SDS011;8720;48.488;9.202;2022-10-17T07:01:23;6.30;;;4.10;;
17207;SDS011;8720;48.488;9.202;2022-10-17T07:03:57;10.20;;;4.43;;
17207;SDS011;8720;48.488;9.202;2022-10-17T07:06:24;5.43;;;4.27;;
17207;SDS011;8720;48.488;9.202;2022-10-17T07:08:54;7.07;;;3.50;;
17207;SDS011;8720;48.488;9.202;2022-10-17T07:11:23;3.30;;;2.97;;
17207;SDS011;8720;48.488;9.202;2022-10-17T07:13:51;6.37;;;3.87;;
17207;SDS011;8720;48.488;9.202;2022-10-17T07:16:20;6.07;;;3.87;;
17207;SDS011;8720;48.488;9.202;2022-10-17T07:18:55;4.70;;;3.60;;
17207;SDS011;8720;48.488;9.202;2022-10-17T07:21:22;5.53;;;3.13;;
17207;SDS011;8720;48.488;9.202;2022-10-17T07:23:49;5.67;;;3.23;;
17207;SDS011;8720;48.488;9.202;2022-10-17T07:26:20;6.63;;;3.50;;
17207;SDS011;8720;48.488;9.202;2022-10-17T07:28:50;6.57;;;3.80;;
17207;SDS011;8720;48.488;9.202;2022-10-17T07:31:37;6.20;;;3.13;;
17207;SDS011;8720;48.488;9.202;2022-10-17T07:34:06;6.27;;;3.90;;
17207;SDS011;8720;48.488;9.202;2022-10-17T07:36:34;4.63;;;3.27;;
17207;SDS011;8720;48.488;9.202;2022-10-17T07:39:03;6.83;;;3.50;;
17207;SDS011;8720;48.488;9.202;2022-10-17T07:41:35;22.93;;;5.23;;
17207;SDS011;8720;48.488;9.202;2022-10-17T07:44:03;4.63;;;2.67;;
17207;SDS011;8720;48.488;9.202;2022-10-17T07:46:40;2.93;;;2.50;;
17207;SDS011;8720;48.488;9.202;2022-10-17T07:49:08;4.57;;;2.73;;
17207;SDS011;8720;48.488;9.202;2022-10-17T07:51:35;3.87;;;2.90;;
17207;SDS011;8720;48.488;9.202;2022-10-17T07:54:05;3.80;;;2.40;;
17207;SDS011;8720;48.488;9.202;2022-10-17T07:56:35;2.90;;;2.40;;
17207;SDS011;8720;48.488;9.202;2022-10-17T07:59:02;4.83;;;2.70;;
17207;SDS011;8720;48.488;9.202;2022-10-17T08:01:30;3.43;;;2.63;;
17207;SDS011;8720;48.488;9.202;2022-10-17T08:03:57;3.20;;;2.60;;
17207;SDS011;8720;48.488;9.202;2022-10-17T08:06:25;3.50;;;2.50;;
17207;SDS011;8720;48.488;9.202;2022-10-17T08:08:52;6.83;;;2.87;;
17207;SDS011;8720;48.488;9.202;2022-10-17T08:11:22;3.33;;;2.70;;
17207;SDS011;8720;48.488;9.202;2022-10-17T08:13:50;2.90;;;2.40;;
17207;SDS011;8720;48.488;9.202;2022-10-17T08:16:18;2.63;;;2.43;;
17207;SDS011;8720;48.488;9.202;2022-10-17T08:18:45;3.57;;;2.47;;
17207;SDS011;8720;48.488;9.202;2022-10-17T08:21:12;3.30;;;2.73;;
17207;SDS011;8720;48.488;9.202;2022-10-17T08:23:40;5.77;;;2.70;;
17207;SDS011;8720;48.488;9.202;2022-10-17T08:26:07;3.10;;;2.77;;
17207;SDS011;8720;48.488;9.202;2022-10-17T08:28:38;3.27;;;2.80;;
17207;SDS011;8720;48.488;9.202;2022-10-17T08:31:07;5.43;;;2.57;;
17207;SDS011;8720;48.488;9.202;2022-10-17T08:33:37;3.17;;;2.77;;
17207;SDS011;8720;48.488;9.202;2022-10-17T08:36:04;6.63;;;2.70;;
17207;SDS011;8720;48.488;9.202;2022-10-17T08:38:34;5.57;;;2.53;;
17207;SDS011;8720;48.488;9.202;2022-10-17T08:41:05;3.17;;;2.30;;
17207;SDS011;8720;48.488;9.202;2022-10-17T08:43:43;2.50;;;1.93;;
17207;SDS011;8720;48.488;9.202;2022-10-17T08:46:29;5.00;;;2.27;;
17207;SDS011;8720;48.488;9.202;2022-10-17T08:49:00;31.57;;;3.50;;
17207;SDS011;8720;48.488;9.202;2022-10-17T08:51:33;6.53;;;2.53;;
17207;SDS011;8720;48.488;9.202;2022-10-17T08:54:08;4.10;;;2.00;;
17207;SDS011;8720;48.488;9.202;2022-10-17T08:56:48;6.20;;;2.70;;
17207;SDS011;8720;48.488;9.202;2022-10-17T08:59:19;2.70;;;2.33;;
17207;SDS011;8720;48.488;9.202;2022-10-17T09:01:57;4.67;;;2.30;;
17207;SDS011;8720;48.488;9.202;2022-10-17T09:04:49;4.07;;;2.23;;
17207;SDS011;8720;48.488;9.202;2022-10-17T09:07:36;3.80;;;2.00;;
17207;SDS011;8720;48.488;9.202;2022-10-17T09:10:17;2.23;;;2.03;;
17207;SDS011;8720;48.488;9.202;2022-10-17T09:12:58;2.20;;;2.10;;
17207;SDS011;8720;48.488;9.202;2022-10-17T09:15:42;3.10;;;2.10;;
17207;SDS011;8720;48.488;9.202;2022-10-17T09:18:18;2.20;;;2.00;;
17207;SDS011;8720;48.488;9.202;2022-10-17T09:20:52;1.80;;;1.70;;
17207;SDS011;8720;48.488;9.202;2022-10-17T09:23:26;2.37;;;1.87;;
17207;SDS011;8720;48.488;9.202;2022-10-17T09:26:07;2.80;;;2.10;;
17207;SDS011;8720;48.488;9.202;2022-10-17T09:28:38;4.40;;;2.27;;
17207;SDS011;8720;48.488;9.202;2022-10-17T09:31:10;3.97;;;2.00;;
17207;SDS011;8720;48.488;9.202;2022-10-17T09:33:45;2.73;;;1.87;;
17207;SDS011;8720;48.488;9.202;2022-10-17T09:36:16;5.13;;;1.80;;
17207;SDS011;8720;48.488;9.202;2022-10-17T09:38:48;4.03;;;2.20;;
17207;SDS011;8720;48.488;9.202;2022-10-17T09:41:23;2.67;;;2.33;;
17207;SDS011;8720;48.488;9.202;2022-10-17T09:43:59;3.43;;;2.13;;
17207;SDS011;8720;48.488;9.202;2022-10-17T09:46:42;4.00;;;2.27;;
17207;SDS011;8720;48.488;9.202;2022-10-17T09:49:32;3.17;;;2.40;;
17207;SDS011;8720;48.488;9.202;2022-10-17T09:52:01;3.43;;;2.40;;
17207;SDS011;8720;48.488;9.202;2022-10-17T09:54:38;3.53;;;2.10;;
17207;SDS011;8720;48.488;9.202;2022-10-17T09:57:10;5.57;;;2.30;;
17207;SDS011;8720;48.488;9.202;2022-10-17T09:59:39;2.30;;;2.10;;
17207;SDS011;8720;48.488;9.202;2022-10-17T10:02:14;3.17;;;2.20;;
17207;SDS011;8720;48.488;9.202;2022-10-17T10:04:57;2.57;;;2.37;;
17207;SDS011;8720;48.488;9.202;2022-10-17T10:07:29;2.60;;;2.30;;
17207;SDS011;8720;48.488;9.202;2022-10-17T10:10:01;4.73;;;2.53;;
17207;SDS011;8720;48.488;9.202;2022-10-17T10:12:32;4.33;;;2.10;;
17207;SDS011;8720;48.488;9.202;2022-10-17T10:15:08;4.03;;;2.57;;
17207;SDS011;8720;48.488;9.202;2022-10-17T10:17:58;3.40;;;1.97;;
17207;SDS011;8720;48.488;9.202;2022-10-17T10:20:29;3.33;;;2.03;;
17207;SDS011;8720;48.488;9.202;2022-10-17T10:23:13;6.13;;;2.33;;
17207;SDS011;8720;48.488;9.202;2022-10-17T10:25:52;3.57;;;2.17;;
17207;SDS011;8720;48.488;9.202;2022-10-17T10:28:27;8.20;;;2.43;;
17207;SDS011;8720;48.488;9.202;2022-10-17T10:30:57;5.40;;;2.43;;
17207;SDS011;8720;48.488;9.202;2022-10-17T10:33:30;4.60;;;2.00;;
17207;SDS011;8720;48.488;9.202;2022-10-17T10:36:04;6.07;;;2.90;;
17207;SDS011;8720;48.488;9.202;2022-10-17T10:38:33;5.03;;;2.50;;
17207;SDS011;8720;48.488;9.202;2022-10-17T10:41:07;3.50;;;2.60;;
17207;SDS011;8720;48.488;9.202;2022-10-17T10:43:37;3.10;;;2.50;;
17207;SDS011;8720;48.488;9.202;2022-10-17T10:46:15;3.00;;;2.67;;
17207;SDS011;8720;48.488;9.202;2022-10-17T10:48:52;3.70;;;2.70;;
17207;SDS011;8720;48.488;9.202;2022-10-17T10:51:26;3.60;;;2.87;;
17207;SDS011;8720;48.488;9.202;2022-10-17T10:54:00;5.17;;;3.37;;
17207;SDS011;8720;48.488;9.202;2022-10-17T10:56:36;2.73;;;2.50;;
17207;SDS011;8720;48.488;9.202;2022-10-17T10:59:09;4.57;;;2.97;;
17207;SDS011;8720;48.488;9.202;2022-10-17T11:01:47;3.90;;;2.70;;
17207;SDS011;8720;48.488;9.202;2022-10-17T11:04:25;2.30;;;2.10;;
17207;SDS011;8720;48.488;9.202;2022-10-17T11:07:01;5.40;;;2.23;;
17207;SDS011;8720;48.488;9.202;2022-10-17T11:09:41;3.40;;;2.77;;
17207;SDS011;8720;48.488;9.202;2022-10-17T11:12:19;2.23;;;2.03;;
17207;SDS011;8720;48.488;9.202;2022-10-17T11:14:52;4.20;;;2.40;;
17207;SDS011;8720;48.488;9.202;2022-10-17T11:17:29;3.07;;;2.57;;
17207;SDS011;8720;48.488;9.202;2022-10-17T11:20:12;3.63;;;2.60;;
17207;SDS011;8720;48.488;9.202;2022-10-17T11:22:51;3.10;;;2.40;;
17207;SDS011;8720;48.488;9.202;2022-10-17T11:25:29;3.57;;;1.93;;
17207;SDS011;8720;48.488;9.202;2022-10-17T11:28:00;9.00;;;1.97;;
17207;SDS011;8720;48.488;9.202;2022-10-17T11:30:40;2.80;;;1.83;;
17207;SDS011;8720;48.488;9.202;2022-10-17T11:33:16;2.47;;;2.10;;
17207;SDS011;8720;48.488;9.202;2022-10-17T11:35:53;2.67;;;2.30;;
17207;SDS011;8720;48.488;9.202;2022-10-17T11:38:29;4.73;;;2.50;;
17207;SDS011;8720;48.488;9.202;2022-10-17T11:41:08;4.20;;;2.10;;
17207;SDS011;8720;48.488;9.202;2022-10-17T11:43:44;3.40;;;1.80;;
17207;SDS011;8720;48.488;9.202;2022-10-17T11:46:20;2.50;;;2.07;;
17207;SDS011;8720;48.488;9.202;2022-10-17T11:48:54;2.93;;;2.07;;
17207;SDS011;8720;48.488;9.202;2022-10-17T11:51:35;3.20;;;2.10;;
17207;SDS011;8720;48.488;9.202;2022-10-17T11:54:11;3.10;;;2.00;;
17207;SDS011;8720;48.488;9.202;2022-10-17T12:00:30;3.30;;;2.03;;
17207;SDS011;8720;48.488;9.202;2022-10-17T12:03:21;3.50;;;2.23;;
17207;SDS011;8720;48.488;9.202;2022-10-17T12:06:02;4.67;;;2.47;;
17207;SDS011;8720;48.488;9.202;2022-10-17T12:08:43;6.37;;;2.37;;
17207;SDS011;8720;48.488;9.202;2022-10-17T12:11:26;2.50;;;2.30;;
17207;SDS011;8720;48.488;9.202;2022-10-17T12:17:20;3.47;;;2.23;;
17207;SDS011;8720;48.488;9.202;2022-10-17T12:23:01;4.37;;;1.97;;
17207;SDS011;8720;48.488;9.202;2022-10-17T12:25:48;2.60;;;1.90;;
17207;SDS011;8720;48.488;9.202;2022-10-17T12:28:22;3.43;;;2.30;;
17207;SDS011;8720;48.488;9.202;2022-10-17T12:30:56;3.70;;;1.80;;
17207;SDS011;8720;48.488;9.202;2022-10-17T12:33:31;1.63;;;1.53;;
17207;SDS011;8720;48.488;9.202;2022-10-17T12:42:32;1.80;;;1.50;;
17207;SDS011;8720;48.488;9.202;2022-10-17T12:45:44;3.07;;;1.87;;
17207;SDS011;8720;48.488;9.202;2022-10-17T12:51:25;3.23;;;1.50;;
17207;SDS011;8720;48.488;9.202;2022-10-17T12:53:56;4.57;;;2.23;;
17207;SDS011;8720;48.488;9.202;2022-10-17T12:56:33;2.20;;;1.60;;
17207;SDS011;8720;48.488;9.202;2022-10-17T12:59:08;3.40;;;1.40;;
17207;SDS011;8720;48.488;9.202;2022-10-17T13:01:44;3.77;;;1.83;;
17207;SDS011;8720;48.488;9.202;2022-10-17T13:04:14;2.53;;;1.83;;
17207;SDS011;8720;48.488;9.202;2022-10-17T13:06:44;2.30;;;1.50;;
17207;SDS011;8720;48.488;9.202;2022-10-17T13:09:19;2.87;;;1.60;;
17207;SDS011;8720;48.488;9.202;2022-10-17T13:11:52;2.50;;;1.50;;
17207;SDS011;8720;48.488;9.202;2022-10-17T13:14:22;1.70;;;1.40;;
17207;SDS011;8720;48.488;9.202;2022-10-17T13:16:54;1.97;;;1.30;;
17207;SDS011;8720;48.488;9.202;2022-10-17T13:19:24;1.50;;;1.30;;
17207;SDS011;8720;48.488;9.202;2022-10-17T13:21:55;1.63;;;1.50;;
17207;SDS011;8720;48.488;9.202;2022-10-17T13:24:26;1.60;;;1.20;;
17207;SDS011;8720;48.488;9.202;2022-10-17T13:26:57;2.17;;;1.20;;
17207;SDS011;8720;48.488;9.202;2022-10-17T13:29:25;3.63;;;1.60;;
17207;SDS011;8720;48.488;9.202;2022-10-17T13:31:58;1.43;;;1.30;;
17207;SDS011;8720;48.488;9.202;2022-10-17T13:34:28;1.60;;;1.50;;
17207;SDS011;8720;48.488;9.202;2022-10-17T13:37:00;2.60;;;1.37;;
17207;SDS011;8720;48.488;9.202;2022-10-17T13:39:32;2.73;;;1.30;;
17207;SDS011;8720;48.488;9.202;2022-10-17T13:42:05;3.57;;;1.70;;
17207;SDS011;8720;48.488;9.202;2022-10-17T13:44:45;2.80;;;1.30;;
17207;SDS011;8720;48.488;9.202;2022-10-17T13:47:22;1.87;;;1.10;;
17207;SDS011;8720;48.488;9.202;2022-10-17T13:49:53;2.63;;;1.20;;
17207;SDS011;8720;48.488;9.202;2022-10-17T13:52:29;2.27;;;1.07;;
17207;SDS011;8720;48.488;9.202;2022-10-17T13:55:04;1.70;;;1.30;;
17207;SDS011;8720;48.488;9.202;2022-10-17T13:57:34;2.40;;;1.40;;
17207;SDS011;8720;48.488;9.202;2022-10-17T14:00:03;5.30;;;1.30;;
17207;SDS011;8720;48.488;9.202;2022-10-17T14:02:43;3.33;;;1.13;;
17207;SDS011;8720;48.488;9.202;2022-10-17T14:05:11;4.30;;;1.10;;
17207;SDS011;8720;48.488;9.202;2022-10-17T14:07:41;2.50;;;1.30;;
17207;SDS011;8720;48.488;9.202;2022-10-17T14:10:18;2.40;;;1.67;;
17207;SDS011;8720;48.488;9.202;2022-10-17T14:12:50;1.77;;;1.67;;
17207;SDS011;8720;48.488;9.202;2022-10-17T14:15:18;3.03;;;1.67;;
17207;SDS011;8720;48.488;9.202;2022-10-17T14:17:54;2.73;;;1.30;;
17207;SDS011;8720;48.488;9.202;2022-10-17T14:20:24;1.90;;;1.60;;
17207;SDS011;8720;48.488;9.202;2022-10-17T14:22:53;5.30;;;2.53;;
17207;SDS011;8720;48.488;9.202;2022-10-17T14:25:25;6.50;;;2.07;;
17207;SDS011;8720;48.488;9.202;2022-10-17T14:27:55;2.47;;;1.50;;
17207;SDS011;8720;48.488;9.202;2022-10-17T14:30:35;8.20;;;1.70;;
17207;SDS011;8720;48.488;9.202;2022-10-17T14:33:11;4.90;;;1.70;;
17207;SDS011;8720;48.488;9.202;2022-10-17T14:35:50;3.27;;;1.87;;
17207;SDS011;8720;48.488;9.202;2022-10-17T14:38:22;3.60;;;1.70;;
17207;SDS011;8720;48.488;9.202;2022-10-17T14:40:51;3.50;;;1.57;;
17207;SDS011;8720;48.488;9.202;2022-10-17T14:43:24;2.60;;;1.80;;
17207;SDS011;8720;48.488;9.202;2022-10-17T14:45:55;2.40;;;1.70;;
17207;SDS011;8720;48.488;9.202;2022-10-17T14:48:26;3.87;;;1.37;;
17207;SDS011;8720;48.488;9.202;2022-10-17T14:51:07;2.50;;;1.43;;
17207;SDS011;8720;48.488;9.202;2022-10-17T14:53:37;3.23;;;1.60;;
17207;SDS011;8720;48.488;9.202;2022-10-17T14:56:19;4.90;;;1.97;;
17207;SDS011;8720;48.488;9.202;2022-10-17T14:58:49;3.60;;;2.40;;
17207;SDS011;8720;48.488;9.202;2022-10-17T15:01:17;4.80;;;2.60;;
17207;SDS011;8720;48.488;9.202;2022-10-17T15:03:46;3.80;;;2.40;;
17207;SDS011;8720;48.488;9.202;2022-10-17T15:06:15;3.10;;;1.80;;
17207;SDS011;8720;48.488;9.202;2022-10-17T15:08:45;4.30;;;1.80;;
17207;SDS011;8720;48.488;9.202;2022-10-17T15:11:13;5.20;;;1.60;;
17207;SDS011;8720;48.488;9.202;2022-10-17T15:13:40;3.30;;;1.60;;
17207;SDS011;8720;48.488;9.202;2022-10-17T15:16:11;2.10;;;1.77;;
17207;SDS011;8720;48.488;9.202;2022-10-17T15:18:44;2.03;;;1.53;;
17207;SDS011;8720;48.488;9.202;2022-10-17T15:21:14;2.77;;;1.50;;
17207;SDS011;8720;48.488;9.202;2022-10-17T15:23:47;4.40;;;1.40;;
17207;SDS011;8720;48.488;9.202;2022-10-17T15:26:15;4.23;;;1.50;;
17207;SDS011;8720;48.488;9.202;2022-10-17T15:28:46;3.33;;;1.30;;
17207;SDS011;8720;48.488;9.202;2022-10-17T15:31:15;1.60;;;1.27;;
17207;SDS011;8720;48.488;9.202;2022-10-17T15:33:47;3.60;;;1.30;;
17207;SDS011;8720;48.488;9.202;2022-10-17T15:36:16;2.50;;;1.80;;
17207;SDS011;8720;48.488;9.202;2022-10-17T15:38:51;2.53;;;1.60;;
17207;SDS011;8720;48.488;9.202;2022-10-17T15:41:21;3.80;;;1.57;;
17207;SDS011;8720;48.488;9.202;2022-10-17T15:43:50;4.30;;;1.70;;
17207;SDS011;8720;48.488;9.202;2022-10-17T15:46:18;3.20;;;1.77;;
17207;SDS011;8720;48.488;9.202;2022-10-17T15:48:49;2.83;;;1.70;;
17207;SDS011;8720;48.488;9.202;2022-10-17T15:51:18;2.80;;;1.70;;
17207;SDS011;8720;48.488;9.202;2022-10-17T15:53:45;2.93;;;1.60;;
17207;SDS011;8720;48.488;9.202;2022-10-17T15:56:17;1.80;;;1.30;;
17207;SDS011;8720;48.488;9.202;2022-10-17T15:58:50;2.77;;;1.47;;
17207;SDS011;8720;48.488;9.202;2022-10-17T16:01:19;4.37;;;1.80;;
17207;SDS011;8720;48.488;9.202;2022-10-17T16:03:50;2.17;;;1.90;;